Time;durP1;ratioP1;P1;durP2;ratioP2;P2;SDS_P1;SDS_P2;PMS_P1;PMS_P2;Temp;Humidity;BMP_temperature;BMP_pressure;BME280_temperature;BME280_humidity;BME280_pressure;Samples;Min_cycle;Max_cycle;Signal;HPM_P1;HPM_P2
2021/12/05 00:22:33;;;;;;;18.85;13.43;;;;;;;3.74;82.10;98831.88;5011950;28;20125;-75
2021/12/05 00:25:01;;;;;;;19.58;14.15;;;;;;;3.48;82.70;98834.59;5008534;28;20049;-75
2021/12/05 00:27:35;;;;;;;15.75;12.52;;;;;;;3.47;83.38;98828.53;5011857;28;20124;-75
2021/12/05 00:30:27;;;;;;;16.65;12.57;;;;;;;3.50;83.87;98831.13;5011843;28;20034;-74
2021/12/05 00:33:22;;;;;;;16.48;12.88;;;;;;;3.56;84.38;98847.63;5008676;28;20041;-74
2021/12/05 00:39:21;;;;;;;18.02;13.07;;;;;;;3.73;83.54;98851.00;4942851;29;20437;-74
2021/12/05 00:53:17;;;;;;;18.05;13.68;;;;;;;3.80;83.74;98854.44;5010266;28;20084;-74
2021/12/05 00:55:40;;;;;;;17.52;12.23;;;;;;;3.87;83.61;98853.53;4985741;28;20057;-74
2021/12/05 01:03:37;;;;;;;18.70;14.30;;;;;;;3.92;83.04;98865.69;5010056;28;20034;-74
2021/12/05 01:06:34;;;;;;;19.67;14.15;;;;;;;3.94;83.08;98879.59;5008176;28;20030;-74
2021/12/05 01:16:41;;;;;;;17.20;12.98;;;;;;;4.05;83.79;98883.88;5009736;28;20041;-75
2021/12/05 01:19:10;;;;;;;17.23;12.93;;;;;;;4.01;83.86;98887.38;5006088;28;20605;-74
2021/12/05 01:21:41;;;;;;;14.55;10.38;;;;;;;4.05;84.20;98884.75;5006610;28;20034;-75
2021/12/05 01:24:48;;;;;;;16.23;13.55;;;;;;;4.05;83.89;98894.31;5001856;28;20037;-75
2021/12/05 01:27:12;;;;;;;16.13;12.00;;;;;;;4.10;84.21;98890.81;4993227;28;20068;-74
2021/12/05 01:29:52;;;;;;;16.08;11.63;;;;;;;4.22;83.32;98896.81;5006845;28;20041;-75
2021/12/05 01:32:39;;;;;;;15.70;12.38;;;;;;;4.25;83.80;98896.81;5010831;28;20061;-74
2021/12/05 01:35:25;;;;;;;16.52;11.98;;;;;;;4.21;84.01;98889.88;5010082;28;20088;-75
2021/12/05 01:40:45;;;;;;;14.55;11.18;;;;;;;4.21;85.12;98926.44;5008783;28;20041;-75
2021/12/05 01:49:12;;;;;;;12.50;9.45;;;;;;;4.37;85.76;98936.75;5008756;28;20120;-75
2021/12/05 01:52:08;;;;;;;11.77;8.95;;;;;;;4.43;86.03;98921.91;5013795;28;20076;-74
2021/12/05 02:11:10;;;;;;;10.38;7.70;;;;;;;4.49;85.55;98954.09;5013497;28;20132;-75
2021/12/05 02:35:27;;;;;;;9.85;7.40;;;;;;;4.59;85.39;98981.91;5013486;28;20033;-75
2021/12/05 02:38:25;;;;;;;7.88;6.43;;;;;;;4.54;85.70;98983.69;5012024;28;20053;-74
2021/12/05 02:44:00;;;;;;;8.95;6.35;;;;;;;4.57;85.57;98988.88;4940129;29;20490;-75
2021/12/05 02:46:26;;;;;;;8.75;6.60;;;;;;;4.64;85.57;99008.00;4944785;29;20031;-75
2021/12/05 02:48:57;;;;;;;9.85;7.20;;;;;;;4.67;85.32;99014.97;4971185;28;20042;-74
2021/12/05 02:51:27;;;;;;;8.70;6.35;;;;;;;4.68;85.35;99021.91;5013740;28;20088;-74
2021/12/05 02:54:15;;;;;;;8.35;6.35;;;;;;;4.65;85.58;99025.41;5009706;28;20041;-75
2021/12/05 02:56:45;;;;;;;8.70;6.68;;;;;;;4.69;85.44;99028.88;5012192;28;20048;-75
2021/12/05 02:59:42;;;;;;;8.48;6.05;;;;;;;4.69;85.03;99029.75;5011632;28;20096;-74
2021/12/05 03:02:13;;;;;;;8.18;6.30;;;;;;;4.70;85.17;99028.88;4986977;28;20049;-75
2021/12/05 03:04:46;;;;;;;7.70;6.28;;;;;;;4.69;85.07;99031.47;5011867;28;20038;-75
2021/12/05 03:07:25;;;;;;;7.88;6.28;;;;;;;4.75;84.93;99029.72;5009556;28;20041;-75
2021/12/05 03:09:51;;;;;;;7.45;6.03;;;;;;;4.79;84.60;99034.06;5009739;28;20033;-75
2021/12/05 03:12:18;;;;;;;8.85;6.57;;;;;;;4.76;84.75;99036.66;5011885;28;20033;-74
2021/12/05 03:14:49;;;;;;;8.00;6.10;;;;;;;4.80;84.90;99038.38;5011679;28;20377;-75
2021/12/05 03:17:15;;;;;;;8.90;6.68;;;;;;;4.80;84.35;99042.75;5011949;28;20444;-74
2021/12/05 03:19:40;;;;;;;7.75;5.90;;;;;;;4.80;84.12;99037.53;5011861;28;20026;-74
2021/12/05 03:22:06;;;;;;;6.80;5.63;;;;;;;4.78;84.80;99040.13;5011640;28;20033;-74
2021/12/05 03:24:32;;;;;;;7.85;6.00;;;;;;;4.80;84.53;99048.84;5003542;28;20030;-74
2021/12/05 03:26:59;;;;;;;9.00;6.85;;;;;;;4.73;84.83;99047.13;5011649;28;20503;-75
2021/12/05 03:29:25;;;;;;;8.30;6.28;;;;;;;4.80;84.91;99045.38;5011619;28;20049;-75
2021/12/05 03:31:55;;;;;;;8.45;6.45;;;;;;;4.80;84.28;99048.84;5011628;28;20144;-75
2021/12/05 03:34:24;;;;;;;9.70;6.97;;;;;;;4.78;84.34;99050.59;5007974;28;20558;-75
2021/12/05 03:36:52;;;;;;;7.28;5.63;;;;;;;4.79;84.69;99047.13;5011139;28;20029;-75
2021/12/05 03:39:19;;;;;;;8.35;5.60;;;;;;;4.80;84.54;99048.84;5011459;28;20021;-74
2021/12/05 03:41:46;;;;;;;8.02;6.45;;;;;;;4.73;85.10;99054.13;5012763;28;20507;-74
2021/12/05 03:44:17;;;;;;;7.93;5.97;;;;;;;4.73;84.87;99044.53;5007425;28;20030;-75
2021/12/05 03:46:44;;;;;;;8.45;6.10;;;;;;;4.72;85.53;99039.31;5007822;28;20036;-75
2021/12/05 03:49:12;;;;;;;7.43;5.65;;;;;;;4.70;85.34;99046.31;5011178;28;20026;-75
2021/12/05 03:51:48;;;;;;;8.52;6.80;;;;;;;4.70;85.18;99055.00;5011315;28;20124;-74
2021/12/05 03:54:14;;;;;;;9.25;6.32;;;;;;;4.69;85.07;99048.06;5011117;28;20034;-74
2021/12/05 03:56:40;;;;;;;8.55;6.60;;;;;;;4.73;85.34;99054.97;5010848;28;20046;-75
2021/12/05 03:59:08;;;;;;;8.95;7.05;;;;;;;4.72;85.39;99053.25;5012387;28;20026;-75
2021/12/05 04:01:35;;;;;;;9.57;6.95;;;;;;;4.75;85.21;99066.31;5011166;28;20033;-74
2021/12/05 04:04:01;;;;;;;10.02;7.10;;;;;;;4.71;85.56;99058.47;5010926;28;20037;-74
2021/12/05 04:06:27;;;;;;;9.05;7.10;;;;;;;4.72;85.58;99061.09;5012045;28;20042;-74
2021/12/05 04:08:59;;;;;;;10.80;8.02;;;;;;;4.74;85.42;99064.56;5010937;28;20120;-75
2021/12/05 04:11:30;;;;;;;;;;;;;;;4.72;85.32;99075.91;5007535;28;20044;-75
2021/12/05 04:13:57;;;;;;;7.32;6.32;;;;;;;4.80;85.30;99080.22;5010800;28;19913;-74
2021/12/05 04:16:26;;;;;;;9.20;7.05;;;;;;;4.75;85.53;99071.53;5010502;28;20033;-75
2021/12/05 04:18:54;;;;;;;8.77;7.10;;;;;;;4.72;85.68;99071.56;5010839;28;20109;-75
2021/12/05 04:21:19;;;;;;;9.10;7.43;;;;;;;4.76;85.67;99073.25;4994364;28;20038;-74
2021/12/05 04:23:46;;;;;;;10.27;7.57;;;;;;;4.76;85.78;99078.47;5007738;28;20083;-75
2021/12/05 04:26:16;;;;;;;8.63;6.63;;;;;;;4.79;85.40;99077.59;5010092;28;20187;-75
2021/12/05 04:28:42;;;;;;;9.77;7.35;;;;;;;4.82;85.77;99075.84;4994278;28;20052;-74
2021/12/05 04:31:09;;;;;;;10.07;7.90;;;;;;;4.84;85.83;99083.66;5010487;28;20483;-74
2021/12/05 04:33:37;;;;;;;10.95;7.97;;;;;;;4.88;85.23;99087.16;4994123;28;20030;-74
2021/12/05 04:36:05;;;;;;;10.35;8.35;;;;;;;4.91;85.22;99085.38;5010203;28;20057;-74
2021/12/05 04:38:30;;;;;;;10.50;7.75;;;;;;;4.87;85.75;99088.88;5010467;28;20483;-75
2021/12/05 04:40:56;;;;;;;10.38;8.18;;;;;;;4.84;85.76;99084.53;4994199;28;20022;-74
2021/12/05 04:43:22;;;;;;;10.95;8.23;;;;;;;4.82;86.37;99083.69;5011337;28;20037;-75
2021/12/05 04:45:50;;;;;;;11.15;8.60;;;;;;;4.79;86.26;99077.59;5009973;28;20129;-75
2021/12/05 04:48:17;;;;;;;11.98;9.70;;;;;;;4.74;86.81;99077.66;5002329;28;20606;-75
2021/12/05 04:50:44;;;;;;;10.98;8.73;;;;;;;4.83;86.65;99080.19;5010345;28;20042;-75
2021/12/05 04:53:10;;;;;;;11.15;9.38;;;;;;;4.91;86.00;99076.66;5010067;28;20519;-75
2021/12/05 04:55:36;;;;;;;11.32;8.70;;;;;;;4.89;85.80;99079.28;5011294;28;20045;-75
2021/12/05 04:58:06;;;;;;;12.82;8.43;;;;;;;4.95;85.60;99083.59;5002264;28;20399;-75
2021/12/05 05:00:37;;;;;;;9.32;7.35;;;;;;;5.02;85.21;99083.53;5002177;28;20503;-74
2021/12/05 05:03:04;;;;;;;10.95;7.55;;;;;;;5.04;84.88;99088.78;5011450;28;20484;-74
2021/12/05 05:05:30;;;;;;;10.98;7.65;;;;;;;5.08;84.84;99090.47;5011148;28;20048;-75
2021/12/05 05:07:56;;;;;;;9.73;7.50;;;;;;;5.04;84.54;99084.41;5011396;28;20411;-74
2021/12/05 05:10:29;;;;;;;11.25;6.78;;;;;;;5.11;84.18;99085.25;5011413;28;20036;-75
2021/12/05 05:12:55;;;;;;;11.02;7.68;;;;;;;5.13;84.09;99096.53;5011506;28;20403;-75
2021/12/05 05:15:24;;;;;;;9.65;7.35;;;;;;;5.11;84.27;99100.94;5011320;28;20041;-75
2021/12/05 05:17:51;;;;;;;10.68;7.70;;;;;;;5.17;84.03;99106.13;5011327;28;20073;-75
2021/12/05 05:20:25;;;;;;;9.30;7.35;;;;;;;5.21;83.81;99110.47;5011294;28;20053;-75
2021/12/05 05:26:09;;;;;;;11.75;7.45;;;;;;;5.26;83.56;99113.88;5011834;28;20040;-75
2021/12/05 05:46:49;;;;;;;10.70;7.40;;;;;;;5.39;82.29;99145.19;5013189;28;20420;-74
2021/12/05 05:51:57;;;;;;;9.95;6.03;;;;;;;5.39;82.52;99145.19;5010971;28;20415;-75
2021/12/05 05:54:22;;;;;;;8.82;6.00;;;;;;;5.39;82.42;99147.81;5005089;28;20037;-74
2021/12/05 05:56:53;;;;;;;9.02;5.70;;;;;;;5.32;82.42;99140.88;5014656;28;20392;-75
2021/12/05 05:59:27;;;;;;;9.52;6.22;;;;;;;5.31;82.13;99131.31;5014677;28;20033;-74
2021/12/05 06:04:18;;;;;;;9.63;6.00;;;;;;;5.30;82.27;99142.66;5014500;28;20042;-75
2021/12/05 06:06:44;;;;;;;8.77;5.68;;;;;;;5.28;82.16;99142.66;5014362;28;20480;-74
2021/12/05 06:09:10;;;;;;;12.00;5.03;;;;;;;5.28;81.65;99151.38;5014327;28;20061;-74
2021/12/05 06:11:36;;;;;;;10.40;5.10;;;;;;;5.27;81.80;99160.09;5014393;28;20484;-75
2021/12/05 06:14:03;;;;;;;9.90;5.75;;;;;;;5.30;82.08;99155.75;5013108;28;20042;-75
2021/12/05 06:16:29;;;;;;;8.13;4.97;;;;;;;5.31;81.35;99158.31;5014097;28;20503;-75
2021/12/05 06:18:55;;;;;;;9.48;5.25;;;;;;;5.24;81.16;99173.22;5014312;28;20030;-75
2021/12/05 06:21:21;;;;;;;11.63;5.00;;;;;;;5.28;81.01;99166.19;5014258;28;20060;-75
2021/12/05 06:23:47;;;;;;;8.15;4.78;;;;;;;5.35;81.19;99182.75;5014037;28;20045;-75
2021/12/05 06:26:19;;;;;;;10.77;4.90;;;;;;;5.40;80.95;99189.66;5004684;28;20087;-74
2021/12/05 06:28:46;;;;;;;8.45;4.25;;;;;;;5.37;80.66;99201.88;5012846;28;20068;-75
2021/12/05 06:32:21;;;;;;;15.45;5.53;;;;;;;5.38;80.14;99203.63;5014103;28;20038;-75
2021/12/05 06:47:30;;;;;;;9.30;4.15;;;;;;;5.39;79.21;99235.00;5012147;28;20089;-74
2021/12/05 06:49:56;;;;;;;10.00;5.07;;;;;;;5.40;79.11;99235.91;5013668;28;20459;-75
2021/12/05 06:52:23;;;;;;;10.15;4.75;;;;;;;5.34;79.09;99238.53;5012482;28;20037;-75
2021/12/05 06:54:49;;;;;;;14.20;5.80;;;;;;;5.38;79.01;99240.28;5012007;28;20069;-74
2021/12/05 06:57:14;;;;;;;11.98;4.88;;;;;;;5.46;79.60;99248.94;5013598;28;20065;-74
2021/12/05 06:59:41;;;;;;;12.52;5.00;;;;;;;5.51;79.23;99256.78;5013620;28;20030;-74
2021/12/05 07:02:08;;;;;;;10.70;4.47;;;;;;;5.47;78.67;99258.50;5013430;28;20484;-75
2021/12/05 07:07:20;;;;;;;10.40;4.70;;;;;;;5.59;78.46;99266.31;5013453;28;20038;-74
2021/12/05 07:09:47;;;;;;;10.93;4.78;;;;;;;5.62;78.67;99270.66;5013279;28;20038;-74
2021/12/05 07:15:03;;;;;;;9.65;4.40;;;;;;;5.59;78.23;99279.38;5009864;28;20045;-74
2021/12/05 07:20:11;;;;;;;10.05;4.90;;;;;;;5.46;79.40;99286.44;5013037;28;20771;-75
2021/12/05 07:23:05;;;;;;;;;;;;;;;5.34;80.58;99283.00;5013427;28;20466;-74
2021/12/05 07:25:48;;;;;;;9.02;4.82;;;;;;;5.30;80.63;99289.16;5011435;28;20268;-75
2021/12/05 07:42:03;;;;;;;8.80;4.93;;;;;;;5.19;82.25;99310.13;5012785;28;20034;-75
2021/12/05 07:44:28;;;;;;;13.80;5.90;;;;;;;5.18;82.84;99311.84;5008838;28;20034;-74
2021/12/05 07:46:54;;;;;;;7.88;4.40;;;;;;;5.21;82.75;99311.88;5008494;28;20484;-74
2021/12/05 07:49:20;;;;;;;10.57;4.30;;;;;;;5.22;81.70;99303.13;5012547;28;20042;-74
2021/12/05 07:51:48;;;;;;;10.77;5.00;;;;;;;5.19;82.36;99311.00;5012541;28;20056;-74
2021/12/05 07:57:10;;;;;;;12.48;4.88;;;;;;;5.32;82.13;99329.22;5009041;28;20060;-74
2021/12/05 08:16:05;;;;;;;12.80;3.58;;;;;;;5.07;81.35;99341.53;5011919;28;20037;-75
2021/12/05 08:18:31;;;;;;;7.90;3.53;;;;;;;5.02;81.33;99347.66;5008559;28;20049;-74
2021/12/05 08:20:58;;;;;;;12.18;3.72;;;;;;;5.02;81.17;99341.56;5008151;28;20042;-75
2021/12/05 08:23:24;;;;;;;7.97;3.55;;;;;;;5.08;80.40;99346.75;5011911;28;20038;-75
2021/12/05 08:25:58;;;;;;;10.75;3.67;;;;;;;5.11;80.81;99351.09;5010512;28;20045;-74
2021/12/05 08:30:59;;;;;;;8.88;3.20;;;;;;;5.17;79.65;99351.97;5011898;28;20033;-75
2021/12/05 08:33:43;;;;;;;10.23;2.83;;;;;;;5.19;78.57;99357.22;5009399;28;20037;-74
2021/12/05 08:39:19;;;;;;;8.35;2.80;;;;;;;5.18;79.08;99360.69;5016728;28;20080;-74
2021/12/05 08:41:48;;;;;;;8.38;2.60;;;;;;;5.24;79.15;99351.09;5010832;28;20100;-74
2021/12/05 09:30:36;;;;;;;7.35;2.63;;;;;;;5.93;74.01;99425.81;5008124;28;20030;-75
2021/12/05 10:01:55;;;;;;;6.78;2.78;;;;;;;6.22;71.96;99446.66;4973516;28;20053;-74
2021/12/05 10:09:52;;;;;;;7.88;2.40;;;;;;;6.13;72.49;99450.19;5012473;28;20037;-75
2021/12/05 10:15:22;;;;;;;10.25;2.88;;;;;;;5.99;73.52;99449.38;5011704;28;20038;-74
2021/12/05 10:26:54;;;;;;;7.85;3.00;;;;;;;5.98;72.67;99437.19;5013330;28;20496;-74
2021/12/05 10:37:28;;;;;;;11.60;3.38;;;;;;;6.10;73.50;99430.97;5014103;28;20103;-75
2021/12/05 10:40:13;;;;;;;6.90;4.00;;;;;;;6.09;73.51;99439.75;5013901;28;20480;-75
2021/12/05 10:42:44;;;;;;;6.95;2.30;;;;;;;6.14;73.65;99443.19;5010664;28;20114;-75
2021/12/05 10:45:27;;;;;;;8.80;3.15;;;;;;;6.24;73.15;99434.41;5013268;28;20439;-74
2021/12/05 10:47:56;;;;;;;8.45;2.65;;;;;;;6.24;72.83;99438.78;5013301;28;20030;-75
2021/12/05 10:50:36;;;;;;;7.75;3.40;;;;;;;6.20;72.58;99427.44;5013515;28;20447;-75
2021/12/05 10:53:24;;;;;;;6.25;2.83;;;;;;;6.29;72.57;99429.16;5010849;28;20136;-75
2021/12/05 10:55:57;;;;;;;8.02;2.60;;;;;;;6.34;72.80;99429.97;5013406;28;20037;-75
2021/12/05 10:58:29;;;;;;;9.05;2.58;;;;;;;6.30;73.05;99436.13;5010223;28;20045;-75
2021/12/05 11:01:05;;;;;;;8.32;2.75;;;;;;;6.24;72.97;99436.16;4996045;28;20037;-75
2021/12/05 11:03:30;;;;;;;8.60;2.47;;;;;;;6.27;72.59;99441.38;5013378;28;20034;-75
2021/12/05 11:05:56;;;;;;;11.15;2.80;;;;;;;6.33;72.40;99428.22;5011969;28;20408;-75
2021/12/05 11:08:35;;;;;;;7.85;2.72;;;;;;;6.37;72.30;99427.34;5013291;28;20496;-75
2021/12/05 11:11:15;;;;;;;7.28;2.45;;;;;;;6.48;72.54;99436.00;5013311;28;20034;-75
2021/12/05 11:13:44;;;;;;;8.20;2.38;;;;;;;6.65;72.41;99435.84;5009845;28;20034;-74
2021/12/05 11:16:34;;;;;;;7.22;2.83;;;;;;;6.74;71.84;99433.19;5012952;28;20038;-75
2021/12/05 11:19:00;;;;;;;8.48;2.95;;;;;;;6.86;71.71;99431.31;5013155;28;20468;-74
2021/12/05 11:21:31;;;;;;;8.35;2.60;;;;;;;7.01;70.92;99426.81;5012523;28;20480;-74
2021/12/05 11:24:04;;;;;;;7.75;2.67;;;;;;;7.15;69.68;99437.19;5013113;28;20070;-75
2021/12/05 11:26:30;;;;;;;8.27;2.25;;;;;;;7.25;69.80;99436.19;5007987;28;20049;-74
2021/12/05 11:28:56;;;;;;;6.63;2.30;;;;;;;7.25;68.96;99438.81;5012973;28;20133;-75
2021/12/05 11:31:27;;;;;;;7.55;2.20;;;;;;;7.31;69.76;99437.91;5008661;28;20069;-75
2021/12/05 11:33:55;;;;;;;7.60;2.50;;;;;;;7.33;69.61;99436.09;5009233;28;20038;-74
2021/12/05 11:36:25;;;;;;;9.18;2.67;;;;;;;7.14;68.52;99435.44;5008880;28;20562;-75
2021/12/05 11:38:51;;;;;;;9.05;2.55;;;;;;;7.07;68.43;99433.75;5009521;28;20083;-75
2021/12/05 11:41:20;;;;;;;10.07;2.40;;;;;;;7.01;69.13;99432.06;5012806;28;20042;-75
2021/12/05 11:43:58;;;;;;;8.10;2.20;;;;;;;6.93;69.20;99431.25;5009125;28;20116;-75
2021/12/05 11:46:28;;;;;;;6.50;2.05;;;;;;;6.90;69.95;99431.28;5012391;28;20117;-74
2021/12/05 11:49:02;;;;;;;8.55;2.63;;;;;;;6.94;68.81;99433.00;5011354;28;20037;-75
2021/12/05 11:51:29;;;;;;;10.45;2.60;;;;;;;7.01;69.15;99439.91;5012640;28;20092;-75
2021/12/05 11:54:22;;;;;;;8.27;2.38;;;;;;;7.24;68.77;99442.34;5012513;28;20033;-75
2021/12/05 11:57:05;;;;;;;6.78;2.15;;;;;;;7.42;67.88;99449.16;5006872;28;20042;-75
2021/12/05 11:59:36;;;;;;;8.07;2.13;;;;;;;7.49;67.51;99441.19;5008770;28;20041;-75
2021/12/05 12:02:15;;;;;;;4.43;2.03;;;;;;;7.49;67.29;99435.94;5009045;28;20044;-75
2021/12/05 12:05:05;;;;;;;6.78;2.20;;;;;;;7.59;66.56;99443.69;5010933;28;20463;-75
2021/12/05 12:07:39;;;;;;;9.82;3.53;;;;;;;7.63;67.11;99441.94;5008123;28;20488;-75
2021/12/05 12:10:13;;;;;;;7.80;1.85;;;;;;;7.42;66.17;99451.78;5012153;28;20049;-75
2021/12/05 12:12:41;;;;;;;6.88;2.25;;;;;;;7.17;66.79;99443.28;5012167;28;20069;-75
2021/12/05 12:15:08;;;;;;;8.65;2.42;;;;;;;7.10;66.01;99461.72;5010637;28;20038;-75
2021/12/05 12:17:33;;;;;;;7.30;2.25;;;;;;;6.96;67.14;99457.47;5012069;28;20049;-74
2021/12/05 12:19:58;;;;;;;9.63;2.47;;;;;;;7.00;67.40;99456.56;5012024;28;20040;-74
2021/12/05 12:22:26;;;;;;;9.48;2.42;;;;;;;6.92;66.94;99462.75;5011685;28;20395;-75
2021/12/05 12:25:00;;;;;;;13.73;2.63;;;;;;;6.81;67.72;99468.06;5012054;28;20453;-74
2021/12/05 12:27:26;;;;;;;9.88;2.55;;;;;;;6.79;68.00;99485.59;5011572;28;20174;-75
2021/12/05 12:29:55;;;;;;;9.23;2.58;;;;;;;6.79;68.58;99475.97;5011978;28;20034;-75
2021/12/05 12:32:26;;;;;;;8.73;3.05;;;;;;;6.73;67.94;99476.03;5010863;28;20033;-75
2021/12/05 12:35:11;;;;;;;8.73;2.72;;;;;;;6.62;68.73;99472.59;5011658;28;20084;-75
2021/12/05 12:38:01;;;;;;;5.88;2.55;;;;;;;6.55;68.21;99482.25;5008904;28;20033;-75
2021/12/05 12:40:54;;;;;;;8.07;2.20;;;;;;;6.53;69.24;99478.78;5006678;28;20041;-75
2021/12/05 12:44:04;;;;;;;9.90;2.63;;;;;;;6.45;69.30;99475.34;5011109;28;20077;-75
2021/12/05 12:46:40;;;;;;;7.22;2.15;;;;;;;6.31;69.18;99469.28;4985323;28;20075;-74
2021/12/05 12:49:15;;;;;;;9.55;2.85;;;;;;;6.24;70.04;99476.34;5011536;28;20481;-75
2021/12/05 12:52:04;;;;;;;8.13;2.95;;;;;;;6.06;71.01;99479.91;5011306;28;20069;-74
2021/12/05 12:54:57;;;;;;;9.43;2.55;;;;;;;6.04;71.13;99471.19;4974736;28;20061;-74
2021/12/05 12:57:28;;;;;;;8.60;2.80;;;;;;;6.02;71.29;99467.69;5005584;28;20054;-74
2021/12/05 12:59:56;;;;;;;10.43;2.73;;;;;;;5.98;71.13;99468.59;5010403;28;20092;-75
2021/12/05 13:02:32;;;;;;;8.00;2.60;;;;;;;5.93;71.36;99467.72;5011349;28;20277;-74
2021/12/05 13:11:07;;;;;;;11.60;2.95;;;;;;;6.05;72.37;99498.25;5010163;28;20041;-75
2021/12/05 13:13:36;;;;;;;9.73;3.53;;;;;;;6.17;72.06;99489.47;5006725;28;20046;-74
2021/12/05 13:16:10;;;;;;;7.68;3.00;;;;;;;6.28;71.95;99503.38;5011031;28;20072;-74
2021/12/05 13:18:38;;;;;;;9.00;3.10;;;;;;;6.35;71.58;99505.97;5011423;28;20045;-74
2021/12/05 13:21:11;;;;;;;8.98;3.00;;;;;;;6.42;71.34;99500.69;5011578;28;20472;-74
2021/12/05 13:23:48;;;;;;;8.65;2.70;;;;;;;6.40;71.90;99508.56;5011252;28;20057;-74
2021/12/05 13:26:23;;;;;;;10.13;2.88;;;;;;;6.39;71.23;99509.41;5010809;28;20045;-74
2021/12/05 13:28:54;;;;;;;8.82;2.97;;;;;;;6.36;71.41;99506.81;5010983;28;20053;-74
2021/12/05 13:31:28;;;;;;;9.18;2.92;;;;;;;6.39;71.91;99506.81;5007889;28;20044;-74
2021/12/05 13:34:16;;;;;;;11.57;3.05;;;;;;;6.43;71.03;99507.69;5009854;28;20034;-74
2021/12/05 13:36:43;;;;;;;12.57;3.05;;;;;;;6.36;71.98;99512.06;5007222;28;20025;-74
2021/12/05 13:39:36;;;;;;;10.00;2.83;;;;;;;6.35;71.13;99518.19;5007244;28;20029;-75
2021/12/05 13:42:14;;;;;;;9.07;2.92;;;;;;;6.33;71.78;99533.06;5010566;28;20050;-74
2021/12/05 13:44:58;;;;;;;8.52;3.28;;;;;;;6.33;71.59;99546.16;5009731;28;20045;-75
2021/12/05 13:47:29;;;;;;;6.75;2.88;;;;;;;6.35;71.77;99547.03;5014922;28;20441;-74
2021/12/05 13:49:56;;;;;;;8.32;2.58;;;;;;;6.37;71.23;99540.03;5014894;28;20052;-75
2021/12/05 13:52:36;;;;;;;12.15;3.05;;;;;;;6.34;71.45;99540.91;5014747;28;20038;-75
2021/12/05 13:55:29;;;;;;;9.15;3.50;;;;;;;6.32;72.06;99547.06;5010185;28;20042;-75
2021/12/05 13:58:21;;;;;;;8.75;3.28;;;;;;;6.32;71.66;99541.81;5011013;28;20538;-75
2021/12/05 14:01:12;;;;;;;10.25;3.15;;;;;;;6.36;72.29;99556.63;5014176;28;20423;-74
2021/12/05 14:03:55;;;;;;;9.43;3.13;;;;;;;6.34;72.44;99555.75;4980372;28;20053;-75
2021/12/05 14:06:53;;;;;;;9.98;3.00;;;;;;;6.34;72.29;99559.25;5010885;28;20037;-75
2021/12/05 14:09:24;;;;;;;14.68;4.30;;;;;;;6.39;72.14;99566.22;4993669;28;20038;-75
2021/12/05 14:11:54;;;;;;;8.95;3.20;;;;;;;6.42;71.70;99567.09;5014454;28;20095;-74
2021/12/05 14:14:24;;;;;;;14.38;4.45;;;;;;;6.35;71.72;99563.63;5014736;28;20088;-75
2021/12/05 14:16:52;;;;;;;10.98;3.10;;;;;;;6.34;72.03;99576.72;5014417;28;20038;-74
2021/12/05 14:19:21;;;;;;;6.95;2.90;;;;;;;6.37;71.90;99579.34;5014307;28;20026;-74
2021/12/05 14:21:49;;;;;;;8.77;3.22;;;;;;;6.42;71.80;99577.59;5014306;28;20072;-75
2021/12/05 14:24:17;;;;;;;11.13;3.47;;;;;;;6.38;71.30;99578.47;5014205;28;20044;-75
2021/12/05 14:26:42;;;;;;;12.25;3.35;;;;;;;6.40;71.51;99589.81;5014315;28;20439;-74
2021/12/05 14:29:13;;;;;;;10.05;3.25;;;;;;;6.40;71.15;99581.09;5013938;28;20038;-75
2021/12/05 14:31:43;;;;;;;11.88;3.72;;;;;;;6.44;70.83;99593.28;5014093;28;20049;-75
2021/12/05 14:34:09;;;;;;;9.23;2.97;;;;;;;6.43;71.29;99592.41;5014080;28;20076;-75
2021/12/05 14:36:49;;;;;;;8.82;2.90;;;;;;;6.49;70.53;99607.25;5013990;28;20446;-75
2021/12/05 14:39:20;;;;;;;11.32;3.38;;;;;;;6.43;70.34;99607.28;5014073;28;20388;-74
2021/12/05 14:41:47;;;;;;;9.77;3.00;;;;;;;6.44;70.58;99612.50;5013862;28;20037;-75
2021/12/05 14:44:15;;;;;;;6.78;2.60;;;;;;;6.41;71.03;99617.75;5013576;28;20038;-74
2021/12/05 14:46:51;;;;;;;9.93;2.13;;;;;;;6.42;70.37;99624.75;5013645;28;20044;-75
2021/12/05 14:49:19;;;;;;;9.73;2.63;;;;;;;6.41;70.49;99619.50;5010482;28;20041;-74
2021/12/05 14:51:45;;;;;;;8.07;2.80;;;;;;;6.49;70.85;99617.72;5013737;28;20034;-74
2021/12/05 14:54:18;;;;;;;9.70;3.30;;;;;;;6.47;70.79;99625.63;5013528;28;20123;-75
2021/12/05 14:56:43;;;;;;;8.43;2.83;;;;;;;6.47;70.49;99629.97;5012607;28;20052;-75
2021/12/05 14:59:12;;;;;;;10.60;3.35;;;;;;;6.50;70.83;99638.69;5013539;28;20037;-74
2021/12/05 15:01:40;;;;;;;11.75;3.88;;;;;;;6.47;70.29;99641.34;5013540;28;20424;-74
2021/12/05 15:04:09;;;;;;;9.43;3.95;;;;;;;6.48;71.05;99645.69;5013429;28;20038;-74
2021/12/05 15:06:39;;;;;;;10.88;3.88;;;;;;;6.49;70.52;99655.28;5013144;28;20038;-74
2021/12/05 15:09:16;;;;;;;10.30;4.60;;;;;;;6.52;70.83;99651.78;5013340;28;20030;-75
2021/12/05 15:12:00;;;;;;;11.52;4.60;;;;;;;6.54;70.21;99648.28;5013448;28;20492;-75
2021/12/05 15:14:26;;;;;;;10.15;3.75;;;;;;;6.54;70.47;99650.91;5009584;28;20053;-74
2021/12/05 15:16:58;;;;;;;11.18;4.22;;;;;;;6.43;69.98;99647.47;5013340;28;20038;-74
2021/12/05 15:19:24;;;;;;;12.15;3.67;;;;;;;6.36;69.95;99656.22;5010207;28;20033;-75
2021/12/05 15:21:50;;;;;;;8.75;3.60;;;;;;;6.22;70.56;99650.16;5013234;28;20116;-75
2021/12/05 15:24:18;;;;;;;9.95;3.63;;;;;;;6.04;70.78;99657.16;5013063;28;20040;-74
2021/12/05 15:26:43;;;;;;;11.35;4.10;;;;;;;5.82;71.26;99655.44;5008910;28;20484;-74
2021/12/05 15:29:09;;;;;;;7.10;3.20;;;;;;;5.64;72.30;99661.53;5012925;28;20038;-75
2021/12/05 15:31:40;;;;;;;8.55;3.72;;;;;;;5.49;72.49;99662.41;5012920;28;20199;-75
2021/12/05 15:34:22;;;;;;;10.03;3.67;;;;;;;5.28;73.08;99665.88;5009145;28;20077;-75
2021/12/05 15:36:48;;;;;;;9.18;3.72;;;;;;;5.13;73.20;99658.84;5010948;28;20293;-75
2021/12/05 15:39:19;;;;;;;9.65;3.85;;;;;;;5.00;74.14;99664.94;5012676;28;20160;-75
2021/12/05 15:41:53;;;;;;;11.50;3.72;;;;;;;4.82;74.80;99658.81;4993141;28;20069;-74
2021/12/05 15:44:32;;;;;;;10.40;4.13;;;;;;;4.74;75.19;99668.38;5012429;28;20180;-74
2021/12/05 15:47:16;;;;;;;8.40;4.60;;;;;;;4.65;75.79;99676.16;5014540;28;20030;-74
2021/12/05 15:49:49;;;;;;;12.20;5.20;;;;;;;4.56;76.01;99678.75;5016362;28;20042;-75
2021/12/05 15:52:16;;;;;;;13.07;6.20;;;;;;;4.46;76.37;99670.00;5013923;28;20022;-75
2021/12/05 15:54:43;;;;;;;14.60;6.57;;;;;;;4.45;77.15;99677.81;5012302;28;20037;-74
2021/12/05 15:57:15;;;;;;;16.45;7.85;;;;;;;4.42;77.74;99683.88;5012493;28;20117;-74
2021/12/05 15:59:46;;;;;;;15.27;7.90;;;;;;;4.47;77.57;99686.53;5003332;28;20033;-74
2021/12/05 16:02:14;;;;;;;18.02;9.93;;;;;;;4.49;77.93;99692.66;5012453;28;20037;-75
2021/12/05 16:04:40;;;;;;;18.45;9.65;;;;;;;4.50;78.16;99691.75;5012009;28;20095;-75
2021/12/05 16:07:10;;;;;;;16.60;8.98;;;;;;;4.53;78.09;99691.78;5012249;28;20076;-74
2021/12/05 16:09:37;;;;;;;15.35;6.93;;;;;;;4.53;77.84;99694.38;5012301;28;20041;-74
2021/12/05 16:12:09;;;;;;;14.40;6.88;;;;;;;4.52;77.70;99696.13;5012238;28;20041;-74
2021/12/05 16:14:37;;;;;;;;;;;;;;;4.48;77.80;99703.94;5008666;28;20471;-72
2021/12/05 16:17:18;;;;;;;14.07;6.95;;;;;;;4.46;77.77;99709.19;5008546;28;19995;-74
2021/12/05 16:20:09;;;;;;;16.77;6.20;;;;;;;4.42;78.08;99704.78;5010359;28;20046;-74
2021/12/05 16:23:03;;;;;;;15.40;6.20;;;;;;;4.39;77.79;99704.78;5009187;28;20036;-75
2021/12/05 16:25:28;;;;;;;15.23;6.65;;;;;;;4.39;77.96;99705.66;5006813;28;20036;-75
2021/12/05 16:28:02;;;;;;;15.95;6.03;;;;;;;4.44;78.01;99708.28;5007670;28;20400;-74
2021/12/05 16:30:34;;;;;;;18.98;6.25;;;;;;;4.46;78.40;99708.31;5011874;28;20034;-74
2021/12/05 16:33:02;;;;;;;12.45;6.18;;;;;;;4.52;77.77;99700.50;5011915;28;20046;-74
2021/12/05 16:35:39;;;;;;;12.23;5.80;;;;;;;4.56;77.77;99703.13;5011627;28;20496;-75
2021/12/05 16:38:21;;;;;;;14.27;6.40;;;;;;;4.55;77.65;99706.59;4996533;28;20080;-73
2021/12/05 16:40:57;;;;;;;12.02;6.18;;;;;;;4.55;77.31;99705.72;5007331;28;20037;-74
2021/12/05 16:43:27;;;;;;;14.90;6.13;;;;;;;4.50;77.53;99705.69;5010436;28;20488;-74
2021/12/05 16:46:14;;;;;;;14.85;6.82;;;;;;;4.47;77.71;99712.66;4991970;28;20034;-75
2021/12/05 16:48:43;;;;;;;12.88;6.30;;;;;;;4.39;77.69;99716.09;5008038;28;20025;-75
2021/12/05 16:51:15;;;;;;;14.18;7.50;;;;;;;4.31;78.23;99717.78;5010320;28;20029;-75
2021/12/05 16:53:45;;;;;;;14.63;7.15;;;;;;;4.24;78.25;99721.22;5011096;28;20042;-74
2021/12/05 16:56:14;;;;;;;15.13;7.88;;;;;;;4.26;78.33;99724.72;5011104;28;20041;-75